Time;durP1;ratioP1;P1;durP2;ratioP2;P2;SDS_P1;SDS_P2;PMS_P1;PMS_P2;Temp;Humidity;BMP_temperature;BMP_pressure;BME280_temperature;BME280_humidity;BME280_pressure;Samples;Min_cycle;Max_cycle;Signal;HPM_P1;HPM_P2
2022/10/15 00:01:13;;;;;;;74.00;35.25;;;;;;;12.03;100.00;98706.63;4334839;33;20028;-76
2022/10/15 00:03:42;;;;;;;64.50;31.62;;;;;;;12.38;100.00;98729.34;4324225;33;20032;-77
2022/10/15 00:06:13;;;;;;;69.03;32.20;;;;;;;11.92;100.00;98716.62;4327990;33;20401;-75
2022/10/15 00:08:41;;;;;;;77.07;34.65;;;;;;;12.31;100.00;98741.22;4326917;33;20039;-76
2022/10/15 00:11:10;;;;;;;72.10;33.58;;;;;;;12.25;100.00;98704.50;4302281;33;20032;-76
2022/10/15 00:13:37;;;;;;;74.22;33.30;;;;;;;12.35;100.00;98747.72;4298344;33;20396;-78
2022/10/15 00:16:07;;;;;;;74.45;34.22;;;;;;;12.34;100.00;98697.50;4297721;33;20205;-76
2022/10/15 00:18:33;;;;;;;69.97;34.30;;;;;;;12.18;100.00;98701.28;4299224;33;20078;-76
2022/10/15 00:20:59;;;;;;;80.40;34.33;;;;;;;12.06;100.00;98692.63;4316031;33;20064;-75
2022/10/15 00:23:26;;;;;;;72.87;35.35;;;;;;;12.35;100.00;98731.53;4328211;33;20443;-75
2022/10/15 00:26:07;;;;;;;69.95;33.15;;;;;;;12.01;100.00;98727.69;4325661;33;20032;-78
2022/10/15 00:28:34;;;;;;;67.18;31.35;;;;;;;12.16;100.00;98727.72;4328533;33;20049;-75
2022/10/15 00:31:06;;;;;;;66.20;33.65;;;;;;;12.19;100.00;98727.19;4326744;33;20517;-76
2022/10/15 00:33:32;;;;;;;;;;;;;;;12.04;100.00;98689.37;4330177;33;20032;-77
2022/10/15 00:36:11;;;;;;;66.05;34.47;;;;;;;12.09;100.00;98732.56;4329190;33;19953;-76
2022/10/15 00:38:38;;;;;;;67.00;33.35;;;;;;;11.70;100.00;98669.03;4329787;33;20049;-75
2022/10/15 00:41:06;;;;;;;76.22;37.42;;;;;;;12.38;100.00;98723.97;4326593;33;20081;-76
2022/10/15 00:43:51;;;;;;;71.70;34.58;;;;;;;11.51;100.00;98668.72;4325195;33;20358;-76
2022/10/15 00:46:38;;;;;;;74.95;34.70;;;;;;;11.76;100.00;98718.44;4341015;33;20036;-76
2022/10/15 00:49:06;;;;;;;76.18;34.78;;;;;;;11.84;100.00;98709.81;4342621;32;20076;-76
2022/10/15 00:51:40;;;;;;;67.25;33.33;;;;;;;11.82;100.00;98711.94;4334491;33;20033;-76
2022/10/15 00:54:08;;;;;;;66.57;33.40;;;;;;;11.99;100.00;98717.97;4313193;33;20032;-77
2022/10/15 00:56:38;;;;;;;73.53;34.10;;;;;;;11.84;100.00;98666.66;4311670;33;20430;-77
2022/10/15 00:59:06;;;;;;;72.85;32.75;;;;;;;12.02;100.00;98705.84;4297559;33;20095;-76
2022/10/15 01:01:32;;;;;;;81.40;33.17;;;;;;;11.84;100.00;98693.62;4268706;33;20030;-75
2022/10/15 01:04:01;;;;;;;76.62;35.08;;;;;;;12.17;100.00;98702.34;4269657;33;20045;-75
2022/10/15 01:06:27;;;;;;;72.75;33.97;;;;;;;11.45;100.00;98664.38;4268648;33;20051;-75
2022/10/15 01:08:54;;;;;;;75.82;33.15;;;;;;;11.75;100.00;98662.84;4267315;33;20068;-77
2022/10/15 01:11:42;;;;;;;66.82;30.60;;;;;;;11.95;100.00;98700.69;4245625;33;20181;-76
2022/10/15 01:14:18;;;;;;;65.78;32.95;;;;;;;12.20;100.00;98696.41;4230618;33;20042;-79
2022/10/15 01:16:48;;;;;;;78.07;36.70;;;;;;;11.81;100.00;98657.19;4237123;33;20063;-76
2022/10/15 01:19:47;;;;;;;76.53;35.78;;;;;;;12.01;100.00;98682.63;4239835;33;20038;-77
2022/10/15 01:22:41;;;;;;;71.05;34.35;;;;;;;11.80;100.00;98660.97;4238282;33;20060;-77
2022/10/15 01:25:40;;;;;;;74.75;34.38;;;;;;;11.96;100.00;98678.03;4239858;33;20030;-76
2022/10/15 01:28:16;;;;;;;82.82;38.33;;;;;;;12.38;100.00;98669.97;4252081;33;20042;-75
2022/10/15 01:30:48;;;;;;;87.37;39.45;;;;;;;12.29;100.00;98662.41;4253234;33;20500;-75
2022/10/15 01:33:25;;;;;;;78.32;37.92;;;;;;;12.23;100.00;98668.88;4263427;33;20060;-75
2022/10/15 01:36:24;;;;;;;74.10;38.50;;;;;;;11.96;100.00;98669.94;4270565;33;20065;-76
2022/10/15 01:38:59;;;;;;;76.68;37.90;;;;;;;11.90;100.00;98645.88;4279360;33;20076;-76
2022/10/15 01:41:40;;;;;;;82.35;39.00;;;;;;;11.57;100.00;98619.13;4280215;33;20025;-76
2022/10/15 01:44:21;;;;;;;80.18;37.65;;;;;;;11.56;100.00;98616.69;4279758;33;20056;-76
2022/10/15 01:46:54;;;;;;;68.00;36.40;;;;;;;11.68;100.00;98597.56;4303885;33;20029;-75
2022/10/15 01:49:25;;;;;;;80.57;36.03;;;;;;;11.51;100.00;98616.69;4312081;33;20101;-76
2022/10/15 01:51:54;;;;;;;70.62;33.65;;;;;;;11.98;100.00;98662.41;4304499;33;20405;-79
2022/10/15 01:54:25;;;;;;;82.30;34.72;;;;;;;11.79;100.00;98612.69;4310889;33;20049;-77
2022/10/15 01:56:53;;;;;;;72.32;38.03;;;;;;;12.13;100.00;98629.22;4310613;33;20054;-78
2022/10/15 01:59:24;;;;;;;69.45;33.80;;;;;;;12.06;100.00;98641.34;4302733;33;20102;-77
2022/10/15 02:01:53;;;;;;;67.53;32.50;;;;;;;12.10;100.00;98588.47;4296044;33;20063;-77
2022/10/15 02:04:25;;;;;;;70.57;33.75;;;;;;;12.30;100.00;98647.84;4309581;33;20094;-77
2022/10/15 02:07:04;;;;;;;71.45;34.17;;;;;;;12.41;100.00;98647.81;4309397;33;20036;-77
2022/10/15 02:09:56;;;;;;;64.45;33.65;;;;;;;12.28;100.00;98655.38;4307615;33;20090;-78
2022/10/15 02:12:41;;;;;;;72.20;32.72;;;;;;;12.22;100.00;98624.09;4308937;33;20034;-77
2022/10/15 02:15:19;;;;;;;76.75;33.35;;;;;;;12.21;100.00;98644.06;4306582;33;20045;-77
2022/10/15 02:17:58;;;;;;;71.97;35.13;;;;;;;12.26;100.00;98608.97;4295154;33;20033;-75
2022/10/15 02:20:50;;;;;;;64.40;33.70;;;;;;;12.08;100.00;98641.91;4267940;33;20112;-77
2022/10/15 02:23:25;;;;;;;64.65;33.28;;;;;;;11.94;100.00;98645.13;4252314;33;20041;-75
2022/10/15 02:25:57;;;;;;;72.37;35.40;;;;;;;11.94;100.00;98601.16;4251222;33;20046;-75
2022/10/15 02:28:26;;;;;;;70.93;37.00;;;;;;;11.73;100.00;98595.69;4206886;34;20069;-76
2022/10/15 02:30:55;;;;;;;67.20;35.17;;;;;;;11.85;100.00;98633.19;4209562;34;20086;-75
2022/10/15 02:33:25;;;;;;;71.00;36.25;;;;;;;11.75;100.00;98588.12;4209216;34;20427;-73
2022/10/15 02:35:53;;;;;;;71.50;34.65;;;;;;;11.70;100.00;98635.88;4208853;34;20429;-74
2022/10/15 02:38:23;;;;;;;63.33;33.95;;;;;;;12.29;100.00;98638.13;4202417;34;20027;-75
2022/10/15 02:40:50;;;;;;;75.22;33.53;;;;;;;12.21;100.00;98600.88;4207978;34;20055;-75
2022/10/15 02:43:19;;;;;;;75.00;33.05;;;;;;;12.42;100.00;98622.47;4201812;34;20071;-76
2022/10/15 02:45:47;;;;;;;65.75;33.38;;;;;;;12.66;100.00;98628.87;4195013;34;20479;-76
2022/10/15 02:48:21;;;;;;;70.85;32.83;;;;;;;12.32;100.00;98610.59;4197810;34;20181;-76
2022/10/15 02:50:47;;;;;;;74.45;36.97;;;;;;;11.99;100.00;98631.63;4211960;33;20043;-76
2022/10/15 02:53:13;;;;;;;64.05;35.47;;;;;;;11.60;100.00;98617.78;4251603;33;20046;-77
2022/10/15 02:55:40;;;;;;;74.68;35.25;;;;;;;12.27;100.00;98626.78;4280708;33;20088;-75
2022/10/15 02:58:07;;;;;;;73.20;36.28;;;;;;;11.82;100.00;98604.06;4280120;33;20190;-75
2022/10/15 03:00:33;;;;;;;76.30;37.28;;;;;;;11.98;100.00;98629.19;4264097;33;20038;-78
2022/10/15 03:02:59;;;;;;;71.37;35.50;;;;;;;11.97;100.00;98598.72;4277528;33;20075;-76
2022/10/15 03:05:27;;;;;;;76.22;35.78;;;;;;;12.30;100.00;98610.06;4267400;33;20444;-75
2022/10/15 03:07:53;;;;;;;66.65;33.90;;;;;;;12.24;100.00;98605.72;4274787;33;20029;-76
2022/10/15 03:10:20;;;;;;;76.18;34.63;;;;;;;12.12;100.00;98602.50;4279409;33;20599;-77
2022/10/15 03:12:47;;;;;;;63.50;32.40;;;;;;;11.78;100.00;98560.63;4279039;33;20330;-75
2022/10/15 03:15:20;;;;;;;71.72;32.53;;;;;;;12.16;100.00;98614.37;4272844;33;20069;-76
2022/10/15 03:17:47;;;;;;;72.32;31.33;;;;;;;11.87;100.00;98587.91;4264768;33;20041;-75
2022/10/15 03:20:15;;;;;;;70.50;32.80;;;;;;;11.72;100.00;98566.28;4261487;33;20075;-79
2022/10/15 03:22:42;;;;;;;64.70;32.90;;;;;;;12.16;100.00;98617.06;4264481;33;20144;-75
2022/10/15 03:25:08;;;;;;;67.25;32.75;;;;;;;11.72;100.00;98555.50;4240237;33;20071;-76
2022/10/15 03:27:35;;;;;;;73.68;31.75;;;;;;;11.54;100.00;98552.25;4238402;33;20131;-76
2022/10/15 03:30:06;;;;;;;67.93;30.95;;;;;;;11.59;100.00;98557.66;4266271;33;20030;-78
2022/10/15 03:32:33;;;;;;;68.47;33.15;;;;;;;12.05;100.00;98607.34;4277581;33;20441;-75
2022/10/15 03:34:59;;;;;;;67.72;34.08;;;;;;;11.97;100.00;98601.41;4279495;33;20182;-76
2022/10/15 03:37:25;;;;;;;60.67;30.40;;;;;;;11.58;100.00;98561.44;4277919;33;20128;-76
2022/10/15 03:39:53;;;;;;;65.55;34.50;;;;;;;11.84;100.00;98560.63;4279800;33;20061;-76
2022/10/15 03:42:20;;;;;;;68.22;32.65;;;;;;;11.49;100.00;98536.06;4291366;33;20071;-77
2022/10/15 03:44:47;;;;;;;67.87;31.30;;;;;;;11.62;100.00;98588.66;4293782;33;20852;-76
2022/10/15 03:47:14;;;;;;;58.87;31.08;;;;;;;11.50;100.00;98547.66;4294550;33;20419;-77
2022/10/15 03:49:41;;;;;;;67.93;32.92;;;;;;;11.88;100.00;98580.59;4294538;33;20065;-77
2022/10/15 03:52:07;;;;;;;60.75;30.98;;;;;;;11.32;100.00;98530.13;4293954;33;20037;-76
2022/10/15 03:54:34;;;;;;;70.00;32.15;;;;;;;11.39;100.00;98525.25;4294555;33;20044;-78
2022/10/15 03:57:02;;;;;;;65.40;34.28;;;;;;;11.82;100.00;98564.41;4314247;33;20052;-76
2022/10/15 03:59:28;;;;;;;64.62;28.67;;;;;;;11.44;100.00;98576.50;4315210;33;20037;-77
2022/10/15 04:01:55;;;;;;;61.05;28.65;;;;;;;11.78;100.00;98593.00;4307877;33;20044;-76
2022/10/15 04:04:22;;;;;;;60.72;28.70;;;;;;;11.72;100.00;98591.37;4279147;33;20062;-76
2022/10/15 04:06:48;;;;;;;64.60;31.75;;;;;;;11.73;100.00;98600.28;4288247;33;20033;-78
2022/10/15 04:09:15;;;;;;;70.68;33.35;;;;;;;10.95;100.00;98548.06;4278771;33;20053;-76
2022/10/15 04:11:41;;;;;;;66.07;34.08;;;;;;;11.43;100.00;98585.66;4276048;33;20064;-76
2022/10/15 04:14:08;;;;;;;64.65;33.40;;;;;;;11.12;100.00;98580.19;4269728;33;20064;-76
2022/10/15 04:16:34;;;;;;;77.37;36.45;;;;;;;11.07;100.00;98518.19;4250438;33;20181;-76
2022/10/15 04:19:03;;;;;;;65.97;31.02;;;;;;;10.93;100.00;98534.06;4249628;33;20075;-75
2022/10/15 04:21:30;;;;;;;71.30;35.45;;;;;;;11.13;100.00;98557.53;4255211;33;20085;-75
2022/10/15 04:23:59;;;;;;;73.25;32.03;;;;;;;11.01;100.00;98524.63;4278926;33;20037;-75
2022/10/15 04:26:25;;;;;;;64.32;33.47;;;;;;;10.96;100.00;98565.03;4274195;33;20421;-75
2022/10/15 04:28:52;;;;;;;60.55;31.90;;;;;;;11.24;100.00;98561.09;4265710;33;20065;-74
2022/10/15 04:31:19;;;;;;;66.82;33.00;;;;;;;11.08;100.00;98530.59;4261779;33;20042;-76
2022/10/15 04:33:49;;;;;;;70.50;32.28;;;;;;;10.73;100.00;98540.16;4269464;33;20077;-76
2022/10/15 04:36:15;;;;;;;65.80;32.05;;;;;;;10.60;100.00;98524.50;4277571;33;20029;-75
2022/10/15 04:38:43;;;;;;;65.43;36.33;;;;;;;10.85;100.00;98559.59;4291849;33;20045;-75
2022/10/15 04:41:11;;;;;;;70.35;33.17;;;;;;;10.94;100.00;98559.09;4291535;33;20041;-77
2022/10/15 04:43:39;;;;;;;58.90;31.73;;;;;;;10.73;100.00;98529.37;4294322;33;20823;-75
2022/10/15 04:46:08;;;;;;;67.00;32.85;;;;;;;10.75;100.00;98524.53;4318765;33;20062;-76
2022/10/15 04:48:36;;;;;;;66.87;34.00;;;;;;;10.49;100.00;98502.88;4322927;33;20037;-75
2022/10/15 04:51:08;;;;;;;63.15;31.00;;;;;;;10.58;100.00;98523.91;4320892;33;20025;-78
2022/10/15 04:53:37;;;;;;;61.33;31.55;;;;;;;11.07;100.00;98507.41;4325178;33;20036;-76
2022/10/15 04:56:09;;;;;;;57.62;29.12;;;;;;;11.08;100.00;98515.22;4310536;33;20110;-76
2022/10/15 04:58:36;;;;;;;70.45;32.40;;;;;;;11.20;100.00;98539.25;4312858;33;20037;-76
2022/10/15 05:01:05;;;;;;;61.80;30.67;;;;;;;11.22;100.00;98555.97;4309091;33;20107;-75
2022/10/15 05:03:33;;;;;;;76.78;30.23;;;;;;;10.95;100.00;98517.63;4312493;33;20443;-75
2022/10/15 05:06:04;;;;;;;57.33;31.37;;;;;;;11.50;100.00;98548.47;4298473;33;20494;-76
2022/10/15 05:08:34;;;;;;;64.57;32.08;;;;;;;10.98;100.00;98557.50;4297212;33;20092;-76
2022/10/15 05:11:02;;;;;;;63.25;30.15;;;;;;;11.09;100.00;98559.16;4295785;33;20067;-76
2022/10/15 05:13:30;;;;;;;59.35;30.50;;;;;;;10.96;100.00;98489.59;4323198;33;20032;-77
2022/10/15 05:16:06;;;;;;;60.83;30.73;;;;;;;11.27;100.00;98569.44;4325288;33;20028;-76
2022/10/15 05:18:33;;;;;;;64.10;30.62;;;;;;;11.30;100.00;98524.19;4323757;33;20070;-77
2022/10/15 05:21:01;;;;;;;67.60;29.77;;;;;;;11.31;100.00;98572.41;4324090;33;20055;-76
2022/10/15 05:23:27;;;;;;;57.78;28.95;;;;;;;11.82;100.00;98571.69;4325295;33;20032;-76
2022/10/15 05:25:57;;;;;;;62.38;30.25;;;;;;;11.40;100.00;98565.44;4323247;33;20032;-77
2022/10/15 05:28:24;;;;;;;69.47;31.02;;;;;;;11.75;100.00;98568.47;4297085;33;20042;-76
2022/10/15 05:30:51;;;;;;;62.88;30.05;;;;;;;11.25;100.00;98568.09;4303466;33;20088;-77
2022/10/15 05:33:17;;;;;;;71.43;32.58;;;;;;;11.13;100.00;98560.25;4311856;33;20037;-77
2022/10/15 05:35:44;;;;;;;68.03;31.15;;;;;;;11.15;100.00;98530.34;4311128;33;20378;-77
2022/10/15 05:38:10;;;;;;;63.00;30.75;;;;;;;11.01;100.00;98557.78;4296989;33;20092;-76
2022/10/15 05:40:38;;;;;;;63.35;31.42;;;;;;;10.85;100.00;98527.28;4293347;33;20063;-79
2022/10/15 05:43:05;;;;;;;59.50;29.85;;;;;;;11.00;100.00;98518.44;4296330;33;20056;-77
2022/10/15 05:45:31;;;;;;;58.25;28.80;;;;;;;11.14;100.00;98524.16;4282650;33;20033;-76
2022/10/15 05:48:01;;;;;;;55.10;29.30;;;;;;;11.64;100.00;98571.13;4280550;33;20114;-76
2022/10/15 05:50:27;;;;;;;66.47;30.00;;;;;;;11.27;100.00;98518.22;4251971;33;20064;-77
2022/10/15 05:52:54;;;;;;;54.63;29.25;;;;;;;10.98;100.00;98536.75;4264651;33;20026;-76
2022/10/15 05:55:22;;;;;;;61.55;30.48;;;;;;;11.26;100.00;98484.28;4257572;33;20123;-78
2022/10/15 05:57:48;;;;;;;59.60;30.23;;;;;;;11.32;100.00;98565.16;4253091;33;20487;-76
2022/10/15 06:00:15;;;;;;;60.15;30.40;;;;;;;11.41;100.00;98555.47;4272777;33;20030;-76
2022/10/15 06:02:41;;;;;;;62.60;30.37;;;;;;;11.38;100.00;98545.22;4280513;33;20473;-75
2022/10/15 06:05:07;;;;;;;62.08;30.02;;;;;;;11.77;100.00;98563.59;4277303;33;20388;-77
2022/10/15 06:07:34;;;;;;;66.28;29.92;;;;;;;11.91;100.00;98561.19;4279838;33;20483;-78
2022/10/15 06:10:03;;;;;;;60.38;31.73;;;;;;;11.63;100.00;98564.12;4278936;33;20037;-77
2022/10/15 06:12:33;;;;;;;67.60;30.15;;;;;;;11.45;100.00;98559.25;4274482;33;20081;-76
2022/10/15 06:14:59;;;;;;;59.67;29.52;;;;;;;11.34;100.00;98523.37;4265371;33;20037;-78
2022/10/15 06:17:26;;;;;;;58.63;30.92;;;;;;;11.81;100.00;98553.91;4265755;33;20047;-74
2022/10/15 06:19:52;;;;;;;61.70;33.60;;;;;;;11.19;100.00;98510.69;4293646;33;20037;-75
2022/10/15 06:22:19;;;;;;;57.13;28.52;;;;;;;11.51;100.00;98555.47;4304804;33;20359;-76
2022/10/15 06:24:52;;;;;;;52.38;29.60;;;;;;;11.90;100.00;98562.25;4307068;33;20516;-75
2022/10/15 06:27:21;;;;;;;57.13;31.33;;;;;;;11.91;100.00;98515.31;4307192;33;20500;-80
2022/10/15 06:29:48;;;;;;;59.35;31.23;;;;;;;11.53;100.00;98520.16;4282391;33;20053;-80
2022/10/15 06:32:14;;;;;;;62.30;29.20;;;;;;;11.66;100.00;98516.13;4266182;33;20384;-81
2022/10/15 06:34:43;;;;;;;58.47;29.23;;;;;;;11.76;100.00;98567.37;4263023;33;20189;-82
2022/10/15 06:37:09;;;;;;;58.65;29.58;;;;;;;11.98;100.00;98551.78;4260433;33;20399;-80
2022/10/15 06:39:36;;;;;;;50.35;27.52;;;;;;;12.74;100.00;98559.19;4264203;33;20043;-81
2022/10/15 06:42:03;;;;;;;54.83;29.08;;;;;;;12.46;100.00;98553.31;4264832;33;20212;-79
2022/10/15 06:44:36;;;;;;;53.38;28.38;;;;;;;12.41;100.00;98546.03;4235607;33;20030;-80
2022/10/15 06:47:09;;;;;;;53.50;29.15;;;;;;;12.12;100.00;98521.53;4234361;33;20530;-83
2022/10/15 06:49:35;;;;;;;53.17;27.13;;;;;;;12.19;100.00;98511.28;4235954;33;20810;-81
2022/10/15 06:52:01;;;;;;;49.40;27.27;;;;;;;12.64;100.00;98560.84;4243694;33;20136;-82
2022/10/15 06:54:28;;;;;;;52.75;29.10;;;;;;;12.86;100.00;98559.66;4242344;33;20045;-82
2022/10/15 06:56:55;;;;;;;49.83;27.70;;;;;;;12.46;100.00;98493.91;4247894;33;20075;-80
2022/10/15 06:59:21;;;;;;;53.63;29.10;;;;;;;12.53;100.00;98549.25;4249437;33;20094;-76
2022/10/15 07:01:47;;;;;;;56.78;28.92;;;;;;;12.44;100.00;98528.47;4285915;33;20140;-79
2022/10/15 07:04:22;;;;;;;55.90;29.27;;;;;;;12.67;100.00;98502.78;4292297;33;20510;-80
2022/10/15 07:06:49;;;;;;;54.30;28.30;;;;;;;12.81;100.00;98565.94;4276793;33;20503;-80
2022/10/15 07:09:16;;;;;;;51.67;27.70;;;;;;;12.41;100.00;98529.84;4276884;33;20420;-81
2022/10/15 07:11:42;;;;;;;59.60;29.95;;;;;;;12.89;100.00;98578.88;4278312;33;20041;-82
2022/10/15 07:14:09;;;;;;;55.60;25.98;;;;;;;12.46;100.00;98526.31;4278235;33;20087;-80
2022/10/15 07:16:36;;;;;;;59.28;31.15;;;;;;;13.12;100.00;98581.22;4286364;33;20446;-82
2022/10/15 07:19:02;;;;;;;46.83;26.30;;;;;;;12.80;100.00;98547.28;4276037;33;20088;-79
2022/10/15 07:21:29;;;;;;;55.55;29.10;;;;;;;13.22;100.00;98527.09;4277412;33;21055;-80
2022/10/15 07:23:59;;;;;;;58.70;28.98;;;;;;;12.88;100.00;98533.22;4283384;33;20052;-89
2022/10/15 07:26:32;;;;;;;50.10;27.98;;;;;;;13.19;100.00;98568.19;4281816;33;20123;-84
2022/10/15 07:29:02;;;;;;;50.33;28.15;;;;;;;13.13;100.00;98582.81;4281917;33;20560;-80
2022/10/15 07:31:29;;;;;;;53.05;28.02;;;;;;;13.62;100.00;98573.91;4289518;33;20076;-86
2022/10/15 07:33:56;;;;;;;50.03;28.83;;;;;;;13.64;100.00;98577.16;4298078;33;20041;-86
2022/10/15 07:36:26;;;;;;;52.03;29.30;;;;;;;13.78;100.00;98567.31;4298763;33;20529;-86
2022/10/15 07:38:54;;;;;;;;;;;;;;;13.52;100.00;98569.38;4298714;33;20041;-78
2022/10/15 07:41:21;;;;;;;46.65;26.45;;;;;;;13.87;100.00;98567.53;4294784;33;19954;-84
2022/10/15 07:43:50;;;;;;;56.45;26.62;;;;;;;13.81;100.00;98534.28;4296339;33;20100;-82
2022/10/15 07:46:17;;;;;;;51.97;29.73;;;;;;;13.90;100.00;98555.34;4299702;33;20129;-83
2022/10/15 07:48:43;;;;;;;43.67;24.80;;;;;;;13.96;100.00;98546.06;4301464;33;20040;-89
2022/10/15 07:51:10;;;;;;;43.60;24.75;;;;;;;13.99;100.00;98518.44;4301245;33;20021;-81
2022/10/15 07:53:36;;;;;;;57.55;27.85;;;;;;;14.41;100.00;98544.03;4296816;33;20105;-85
2022/10/15 07:56:06;;;;;;;48.85;26.85;;;;;;;14.08;100.00;98516.72;4296052;33;20178;-87
2022/10/15 07:58:34;;;;;;;47.15;26.65;;;;;;;14.76;100.00;98557.50;4293377;33;20173;-80
2022/10/15 08:01:01;;;;;;;42.47;24.12;;;;;;;14.46;100.00;98565.66;4278656;33;20548;-78
2022/10/15 08:03:29;;;;;;;43.95;25.33;;;;;;;14.55;100.00;98555.00;4272404;33;20113;-86
2022/10/15 08:05:59;;;;;;;48.97;25.65;;;;;;;14.48;100.00;98519.31;4274521;33;20095;-88
2022/10/15 08:08:25;;;;;;;41.90;24.37;;;;;;;14.48;100.00;98519.31;4258296;33;20030;-84
2022/10/15 08:10:52;;;;;;;44.22;25.70;;;;;;;14.96;100.00;98561.88;4253193;33;20090;-86
2022/10/15 08:13:18;;;;;;;47.42;23.50;;;;;;;14.67;100.00;98565.47;4252711;33;20067;-80
2022/10/15 08:15:46;;;;;;;41.75;24.58;;;;;;;15.14;100.00;98552.97;4256294;33;20058;-91
2022/10/15 08:18:13;;;;;;;46.15;26.33;;;;;;;15.00;100.00;98509.50;4256982;33;20536;-86
2022/10/15 08:20:39;;;;;;;43.97;25.48;;;;;;;14.66;100.00;98517.78;4255673;33;20059;-85
2022/10/15 08:23:14;;;;;;;43.42;24.90;;;;;;;15.09;100.00;98490.66;4256103;33;20514;-84
2022/10/15 08:25:41;;;;;;;45.72;24.65;;;;;;;15.42;100.00;98553.13;4292706;33;20099;-81
2022/10/15 08:28:09;;;;;;;43.67;22.48;;;;;;;15.32;100.00;98550.56;4296683;33;20178;-81
2022/10/15 08:30:36;;;;;;;39.20;21.60;;;;;;;15.45;100.00;98511.84;4296380;33;20063;-81
2022/10/15 08:33:05;;;;;;;35.97;20.88;;;;;;;15.57;100.00;98512.22;4296935;33;20170;-84
2022/10/15 08:35:35;;;;;;;38.88;21.48;;;;;;;15.62;100.00;98550.12;4291344;33;20045;-77
2022/10/15 09:50:12;;;;;;;28.00;15.43;;;;;;;17.91;100.00;98549.00;4298800;33;20063;-81
2022/10/15 09:53:00;;;;;;;20.83;13.40;;;;;;;17.98;100.00;98505.78;4278223;33;20416;-79
2022/10/15 09:55:48;;;;;;;33.60;16.50;;;;;;;18.16;100.00;98553.00;4281235;33;20423;-80
2022/10/15 09:58:20;;;;;;;21.58;14.25;;;;;;;18.47;100.00;98547.56;4279545;33;20041;-81
2022/10/15 10:00:58;;;;;;;29.27;15.48;;;;;;;18.70;100.00;98550.25;4280372;33;20489;-81
2022/10/15 10:03:32;;;;;;;21.30;11.90;;;;;;;18.52;100.00;98549.34;4266441;33;20180;-82
2022/10/15 10:06:10;;;;;;;24.40;13.52;;;;;;;18.14;100.00;98545.16;4263157;33;20029;-80
2022/10/15 10:08:56;;;;;;;27.05;14.27;;;;;;;18.19;100.00;98557.03;4266975;33;20034;-81
2022/10/15 10:11:25;;;;;;;30.45;13.48;;;;;;;18.79;100.00;98548.31;4266165;33;20103;-80
2022/10/15 10:13:57;;;;;;;25.65;13.88;;;;;;;19.03;100.00;98528.03;4266023;33;20037;-82
2022/10/15 10:16:25;;;;;;;22.60;13.55;;;;;;;18.80;100.00;98519.94;4266478;33;20157;-80
2022/10/15 10:19:20;;;;;;;24.65;15.07;;;;;;;18.88;100.00;98551.91;4267141;33;20327;-81
2022/10/15 10:21:46;;;;;;;27.60;14.70;;;;;;;18.48;100.00;98565.53;4250492;33;20308;-81
2022/10/15 10:24:33;;;;;;;25.92;15.20;;;;;;;17.94;100.00;98567.44;4271261;33;20063;-81
2022/10/15 10:27:01;;;;;;;28.98;15.77;;;;;;;17.72;100.00;98532.81;4279404;33;20402;-80
2022/10/15 10:29:33;;;;;;;25.58;14.18;;;;;;;17.92;100.00;98558.78;4280823;33;20045;-79
2022/10/15 10:32:22;;;;;;;22.05;14.87;;;;;;;18.28;100.00;98512.34;4280903;33;20033;-81
2022/10/15 10:34:49;;;;;;;29.65;14.60;;;;;;;18.10;100.00;98560.50;4279220;33;20046;-80
2022/10/15 10:37:16;;;;;;;19.95;13.35;;;;;;;17.98;100.00;98557.53;4281206;33;20040;-80
2022/10/15 10:39:44;;;;;;;23.27;12.60;;;;;;;18.59;100.00;98559.78;4280933;33;20147;-82
2022/10/15 10:42:17;;;;;;;19.65;13.05;;;;;;;17.74;100.00;98525.13;4280805;33;20038;-82
2022/10/15 10:44:45;;;;;;;28.27;13.15;;;;;;;17.66;100.00;98537.56;4278766;33;20101;-80
2022/10/15 10:47:21;;;;;;;32.95;13.70;;;;;;;18.47;100.00;98536.66;4280743;33;20089;-82
2022/10/15 10:49:52;;;;;;;23.35;12.90;;;;;;;18.11;100.00;98545.78;4293199;33;20359;-82
2022/10/15 10:52:20;;;;;;;20.98;14.98;;;;;;;18.07;100.00;98565.78;4300363;33;20041;-83
2022/10/15 10:54:56;;;;;;;20.85;12.68;;;;;;;17.94;100.00;98562.78;4310352;33;20392;-81
2022/10/15 10:57:34;;;;;;;37.03;13.90;;;;;;;18.26;100.00;98546.50;4311819;33;20036;-82
2022/10/15 11:00:03;;;;;;;30.40;15.98;;;;;;;18.38;100.00;98560.34;4311988;33;20040;-82
2022/10/15 11:02:34;;;;;;;22.62;12.50;;;;;;;18.40;100.00;98536.31;4321259;33;20041;-81
2022/10/15 11:05:02;;;;;;;26.40;14.52;;;;;;;18.94;100.00;98579.03;4324523;33;20275;-82
2022/10/15 11:07:49;;;;;;;22.85;12.75;;;;;;;18.55;100.00;98539.75;4324287;33;20032;-83
2022/10/15 11:10:35;;;;;;;20.35;13.05;;;;;;;18.38;100.00;98575.87;4320479;33;20087;-80
2022/10/15 11:13:31;;;;;;;16.80;12.57;;;;;;;18.37;100.00;98575.09;4324487;33;20070;-82
2022/10/15 11:16:31;;;;;;;20.35;12.60;;;;;;;18.48;100.00;98532.81;4320895;33;20078;-83
2022/10/15 11:19:17;;;;;;;19.33;12.23;;;;;;;18.03;100.00;98560.16;4324415;33;20526;-82
2022/10/15 11:21:58;;;;;;;33.50;12.57;;;;;;;17.83;100.00;98574.22;4323678;33;20278;-82
2022/10/15 11:24:34;;;;;;;20.27;13.00;;;;;;;17.88;100.00;98563.22;4323679;33;20059;-83
2022/10/15 11:27:22;;;;;;;22.10;12.93;;;;;;;18.51;100.00;98570.34;4322717;33;20045;-81
2022/10/15 11:29:57;;;;;;;23.50;13.65;;;;;;;18.04;100.00;98555.50;4324254;33;20068;-82
2022/10/15 11:32:39;;;;;;;18.98;11.82;;;;;;;18.13;100.00;98559.09;4323495;33;20058;-82
2022/10/15 11:35:05;;;;;;;;;;;;;;;17.87;100.00;98572.47;4311802;33;20057;-83
2022/10/15 11:38:16;;;;;;;19.85;12.50;;;;;;;18.47;100.00;98563.91;4311476;33;19939;-83
2022/10/15 11:41:02;;;;;;;18.90;11.30;;;;;;;18.33;100.00;98579.53;4338823;33;20944;-83
2022/10/15 11:43:39;;;;;;;18.05;11.18;;;;;;;18.08;100.00;98570.13;4338528;33;20118;-83
2022/10/15 11:46:28;;;;;;;25.17;11.25;;;;;;;17.85;100.00;98580.16;4336218;33;20048;-83
2022/10/15 11:49:33;;;;;;;20.77;12.27;;;;;;;17.48;100.00;98549.44;4317228;33;20070;-83
2022/10/15 11:52:36;;;;;;;18.52;13.18;;;;;;;17.94;100.00;98579.12;4322147;33;20095;-83
2022/10/15 11:55:12;;;;;;;26.90;13.65;;;;;;;18.37;100.00;98545.13;4323263;33;20180;-82
2022/10/15 11:57:41;;;;;;;28.77;12.65;;;;;;;17.98;100.00;98557.53;4323733;33;20052;-83
2022/10/15 12:00:10;;;;;;;24.90;12.68;;;;;;;18.20;100.00;98564.88;4323357;33;20058;-82
2022/10/15 12:02:39;;;;;;;20.20;13.82;;;;;;;17.28;100.00;98535.19;4324103;33;20322;-82
2022/10/15 12:05:09;;;;;;;18.40;12.10;;;;;;;17.76;100.00;98567.28;4324792;33;20078;-83
2022/10/15 12:07:48;;;;;;;25.67;13.00;;;;;;;17.77;100.00;98558.03;4322241;33;20041;-83
2022/10/15 12:10:34;;;;;;;20.52;12.80;;;;;;;18.42;100.00;98564.06;4320224;33;20037;-82
2022/10/15 12:13:24;;;;;;;18.00;11.43;;;;;;;17.47;100.00;98545.09;4293951;33;20062;-83
2022/10/15 12:16:27;;;;;;;21.65;12.43;;;;;;;17.91;100.00;98578.97;4290846;33;20388;-81
2022/10/15 12:19:16;;;;;;;18.55;11.65;;;;;;;18.19;100.00;98579.66;4278272;33;20067;-77
2022/10/15 12:21:55;;;;;;;18.77;10.10;;;;;;;17.71;100.00;98586.47;4280433;33;20038;-82
2022/10/15 12:24:46;;;;;;;19.12;11.82;;;;;;;17.72;100.00;98590.00;4295824;33;20053;-77
2022/10/15 12:27:20;;;;;;;15.55;10.32;;;;;;;17.28;100.00;98592.31;4296994;33;20084;-82
2022/10/15 12:29:51;;;;;;;23.95;10.40;;;;;;;16.91;100.00;98563.44;4296129;33;20521;-82
2022/10/15 12:32:28;;;;;;;17.45;10.95;;;;;;;17.51;100.00;98581.47;4295234;33;20387;-82
2022/10/15 12:34:58;;;;;;;17.40;10.05;;;;;;;17.73;100.00;98584.25;4296986;33;20432;-82
2022/10/15 12:37:27;;;;;;;15.35;10.70;;;;;;;17.50;100.00;98588.03;4296596;33;20172;-82
2022/10/15 12:40:04;;;;;;;14.50;9.40;;;;;;;17.50;100.00;98577.16;4296111;33;20061;-80
2022/10/15 12:42:34;;;;;;;17.83;10.15;;;;;;;17.22;100.00;98579.94;4296604;33;20037;-81